Time;durP1;ratioP1;P1;durP2;ratioP2;P2;SDS_P1;SDS_P2;PMS_P1;PMS_P2;Temp;Humidity;BMP_temperature;BMP_pressure;BME280_temperature;BME280_humidity;BME280_pressure;Samples;Min_cycle;Max_cycle;Signal;HPM_P1;HPM_P2
2021/11/13 00:02:20;;;;;;;;;;;;;;;3.80;74.31;99583.19;5005599;28;20292;-84
2021/11/13 00:04:46;;;;;;;;;;;;;;;3.80;74.13;99583.19;5005524;28;19976;-84
2021/11/13 00:07:11;;;;;;;;;;;;;;;3.80;74.31;99569.22;5005582;28;19926;-84
2021/11/13 00:09:37;;;;;;;;;;;;;;;3.84;74.75;99578.75;5004652;28;19922;-83
2021/11/13 00:12:02;;;;;;;;;;;;;;;3.81;74.75;99577.06;5006056;28;20336;-84
2021/11/13 00:14:29;;;;;;;;;;;;;;;3.85;74.90;99569.16;5003500;28;19922;-83
2021/11/13 00:16:55;;;;;;;;;;;;;;;3.87;74.66;99564.72;5005330;28;20360;-83
2021/11/13 00:19:20;;;;;;;;;;;;;;;3.88;74.72;99566.44;5005725;28;20431;-83
2021/11/13 00:21:46;;;;;;;;;;;;;;;3.90;74.60;99567.31;5004432;28;19929;-83
2021/11/13 00:24:12;;;;;;;;;;;;;;;3.91;74.89;99563.75;4987471;28;20008;-83
2021/11/13 00:26:38;;;;;;;;;;;;;;;3.92;74.80;99562.88;5004638;28;19921;-85
2021/11/13 00:29:03;;;;;;;;;;;;;;;3.93;74.63;99572.50;5004706;28;19983;-83
2021/11/13 00:31:28;;;;;;;;;;;;;;;3.95;75.01;99571.53;5003264;28;19921;-83
2021/11/13 00:33:54;;;;;;;;;;;;;;;3.96;75.04;99556.69;5004859;28;19918;-83
2021/11/13 00:36:19;;;;;;;;;;;;;;;3.95;75.08;99552.34;5004921;28;19925;-83
2021/11/13 00:38:44;;;;;;;;;;;;;;;3.99;75.37;99554.03;4986849;28;19925;-84
2021/11/13 00:41:09;;;;;;;;;;;;;;;4.00;75.25;99568.84;4986661;28;19925;-84
2021/11/13 00:43:35;;;;;;;;;;;;;;;3.98;75.14;99573.25;4987227;28;19976;-83
2021/11/13 00:46:00;;;;;;;;;;;;;;;4.03;75.35;99570.53;5002634;28;19922;-83
2021/11/13 00:48:25;;;;;;;;;;;;;;;3.99;75.03;99572.38;5004324;28;19929;-84
2021/11/13 00:50:51;;;;;;;;;;;;;;;4.03;75.20;99560.06;5004097;28;19971;-83
2021/11/13 00:53:16;;;;;;;;;;;;;;;4.12;75.73;99555.50;5004751;28;20255;-85
2021/11/13 00:55:42;;;;;;;;;;;;;;;4.25;77.02;99555.25;5004538;28;19975;-84
2021/11/13 00:58:07;;;;;;;;;;;;;;;4.40;78.60;99552.28;5004165;28;19928;-84
2021/11/13 01:00:33;;;;;;;;;;;;;;;4.50;80.01;99552.94;5003562;28;19922;-84
2021/11/13 01:02:58;;;;;;;;;;;;;;;4.53;81.16;99545.91;5003993;28;19968;-84
2021/11/13 01:05:23;;;;;;;;;;;;;;;4.57;82.05;99559.81;5005103;28;19921;-84
2021/11/13 01:07:49;;;;;;;;;;;;;;;4.68;83.13;99567.44;5003520;28;20021;-84
2021/11/13 01:10:16;;;;;;;;;;;;;;;4.71;83.58;99564.75;5004274;28;20379;-84
2021/11/13 01:12:42;;;;;;;;;;;;;;;4.68;84.31;99565.66;5003345;28;19928;-84
2021/11/13 01:15:08;;;;;;;;;;;;;;;4.64;84.77;99568.41;5003028;28;19917;-84
2021/11/13 01:17:35;;;;;;;;;;;;;;;4.58;85.31;99568.53;5003758;28;19948;-84
2021/11/13 01:20:00;;;;;;;;;;;;;;;4.54;86.03;99573.84;5004562;28;20020;-84
2021/11/13 01:22:25;;;;;;;;;;;;;;;4.51;86.61;99568.66;5004650;28;20004;-83
2021/11/13 01:24:51;;;;;;;;;;;;;;;4.49;86.71;99575.72;5003394;28;19921;-84
2021/11/13 01:27:16;;;;;;;;;;;;;;;4.45;86.99;99574.06;5003694;28;19930;-84
2021/11/13 01:29:42;;;;;;;;;;;;;;;4.45;87.60;99575.81;5002397;28;19968;-84
2021/11/13 01:32:08;;;;;;;;;;;;;;;4.40;88.52;99570.66;5004111;28;20272;-83
2021/11/13 01:34:34;;;;;;;;;;;;;;;4.42;89.10;99571.50;5003673;28;20361;-83
2021/11/13 01:36:59;;;;;;;;;;;;;;;4.42;90.45;99579.38;5004639;28;20338;-83
2021/11/13 04:13:34;;;;;;;;;;;;;;;3.84;98.81;99470.44;4960078;28;19933;-82
2021/11/13 04:15:59;;;;;;;;;;;;;;;3.85;98.49;99466.94;4966629;28;19926;-82
2021/11/13 04:18:24;;;;;;;;;;;;;;;3.80;97.81;99459.16;4965564;28;19918;-82
2021/11/13 04:20:50;;;;;;;;;;;;;;;3.71;97.25;99465.44;4966203;28;19926;-83
2021/11/13 04:23:15;;;;;;;;;;;;;;;3.72;96.86;99461.91;4966753;28;19918;-82
2021/11/13 04:25:40;;;;;;;;;;;;;;;3.72;96.59;99461.91;4981306;28;19945;-82
2021/11/13 04:28:05;;;;;;;;;;;;;;;3.67;96.01;99461.16;4947614;28;19954;-83
2021/11/13 04:30:31;;;;;;;;;;;;;;;3.58;95.49;99454.31;4973013;28;19918;-82
2021/11/13 04:32:56;;;;;;;;;;;;;;;3.61;95.22;99442.94;4971864;28;19918;-83
2021/11/13 04:35:34;;;;;;;;;;;;;;;3.56;94.63;99444.78;4981026;28;19922;-82
2021/11/13 04:38:00;;;;;;;;;;;;;;;3.55;94.14;99433.44;4949787;28;19918;-82
2021/11/13 04:40:30;;;;;;;;;;;;;;;3.48;93.80;99425.72;4965851;28;20322;-82
2021/11/13 04:42:55;;;;;;;;;;;;;;;3.49;93.33;99422.22;4965130;28;19918;-82
2021/11/13 04:45:21;;;;;;;;;;;;;;;3.47;92.48;99418.78;4966079;28;19918;-84
2021/11/13 04:47:46;;;;;;;;;;;;;;;3.41;91.99;99417.97;4965785;28;19922;-82
2021/11/13 04:50:14;;;;;;;;;;;;;;;3.41;91.59;99420.59;4965941;28;19929;-83
2021/11/13 04:52:40;;;;;;;;;;;;;;;3.41;91.06;99414.50;4948921;28;19923;-82
2021/11/13 04:55:05;;;;;;;;;;;;;;;3.34;90.66;99416.38;4965787;28;20277;-83
2021/11/13 04:57:31;;;;;;;;;;;;;;;3.33;90.18;99422.50;4964386;28;19977;-82
2021/11/13 04:59:56;;;;;;;;;;;;;;;3.31;89.46;99424.28;4965909;28;19914;-82
2021/11/13 05:02:21;;;;;;;;;;;;;;;3.26;88.91;99416.53;4965847;28;19926;-82
2021/11/13 05:04:48;;;;;;;;;;;;;;;3.16;88.49;99414.97;4980352;28;19918;-82
2021/11/13 05:07:13;;;;;;;;;;;;;;;3.19;88.01;99419.28;4965426;28;20012;-82
2021/11/13 05:09:38;;;;;;;;;;;;;;;3.22;87.61;99433.19;4966104;28;20009;-82
2021/11/13 05:12:04;;;;;;;;;;;;;;;3.32;88.70;99428.66;4963486;28;19926;-83
2021/11/13 05:14:29;;;;;;;;;;;;;;;3.30;90.14;99429.56;4965194;28;19989;-82
2021/11/13 05:16:54;;;;;;;;;;;;;;;3.32;90.85;99426.03;4965256;28;20353;-82
2021/11/13 05:19:19;;;;;;;;;;;;;;;3.25;91.39;99427.03;4965823;28;19914;-83
2021/11/13 05:21:45;;;;;;;;;;;;;;;3.26;91.56;99423.53;4965536;28;19929;-82
2021/11/13 05:24:10;;;;;;;;;;;;;;;3.13;91.45;99420.28;4965074;28;19915;-83
2021/11/13 05:26:35;;;;;;;;;;;;;;;3.19;91.87;99428.00;4963838;28;19927;-82
2021/11/13 05:29:00;;;;;;;;;;;;;;;3.17;91.73;99421.91;4965641;28;20286;-82
2021/11/13 05:31:26;;;;;;;;;;;;;;;3.16;91.53;99428.06;4965030;28;19921;-83
2021/11/13 05:33:52;;;;;;;;;;;;;;;3.19;91.83;99422.78;4964719;28;19919;-82
2021/11/13 05:36:17;;;;;;;;;;;;;;;3.08;91.25;99428.22;4965036;28;20297;-82
2021/11/13 05:38:42;;;;;;;;;;;;;;;3.15;91.05;99422.84;4965425;28;19923;-82
2021/11/13 05:41:07;;;;;;;;;;;;;;;3.09;90.85;99427.31;4978555;28;20037;-83
2021/11/13 05:43:32;;;;;;;;;;;;;;;3.05;90.66;99422.16;4964721;28;20321;-83
2021/11/13 05:45:58;;;;;;;;;;;;;;;3.05;90.16;99423.03;4964730;28;19929;-82
2021/11/13 05:48:23;;;;;;;;;;;;;;;3.05;89.81;99423.03;4947152;28;19945;-82
2021/11/13 05:50:48;;;;;;;;;;;;;;;3.01;89.65;99431.81;4964932;28;20298;-82
2021/11/13 05:53:14;;;;;;;;;;;;;;;3.07;89.53;99434.31;4964669;28;19922;-83
2021/11/13 05:55:40;;;;;;;;;;;;;;;3.00;89.15;99430.09;4964678;28;19918;-82
2021/11/13 05:58:05;;;;;;;;;;;;;;;2.95;89.31;99433.69;4963733;28;20365;-83
2021/11/13 06:00:31;;;;;;;;;;;;;;;2.90;89.32;99433.75;4947043;28;19918;-83
2021/11/13 08:48:46;;;;;;;;;;;;;;;3.04;78.26;99439.59;5389679;23;19940;-82
2021/11/13 08:51:13;;;;;;;;;;;;;;;3.03;78.09;99435.28;4995640;28;19921;-82
2021/11/13 08:53:38;;;;;;;;;;;;;;;3.03;78.37;99437.00;4996547;28;20086;-83
2021/11/13 08:56:04;;;;;;;;;;;;;;;3.08;77.97;99438.69;5014375;28;20016;-82
2021/11/13 08:58:29;;;;;;;;;;;;;;;3.03;78.35;99431.78;5013488;28;19924;-82
2021/11/13 09:00:55;;;;;;;;;;;;;;;3.08;77.92;99432.59;5014450;28;19929;-82
2021/11/13 09:03:31;;;;;;;;;;;;;;;3.08;78.15;99427.34;5013039;28;19917;-82
2021/11/13 09:05:57;;;;;;;;;;;;;;;3.13;78.29;99424.63;4996363;28;19925;-82
2021/11/13 09:08:23;;;;;;;;;;;;;;;3.15;77.87;99425.47;5014331;28;19925;-82
2021/11/13 09:10:49;;;;;;;;;;;;;;;3.17;78.05;99415.84;5014165;28;19928;-82
2021/11/13 09:13:14;;;;;;;;;;;;;;;3.19;78.08;99416.66;5013791;28;19917;-82
2021/11/13 09:15:40;;;;;;;;;;;;;;;3.17;77.95;99415.84;5013921;28;20430;-82
2021/11/13 09:18:06;;;;;;;;;;;;;;;3.19;78.37;99411.41;5012597;28;19917;-81
2021/11/13 09:20:32;;;;;;;;;;;;;;;3.21;78.16;99417.50;4996287;28;19995;-82
2021/11/13 09:22:57;;;;;;;;;;;;;;;3.15;77.95;99412.38;5012828;28;19917;-82
2021/11/13 09:25:23;;;;;;;;;;;;;;;3.17;78.04;99411.44;5014026;28;19921;-82
2021/11/13 09:27:49;;;;;;;;;;;;;;;3.25;78.00;99411.31;5013649;28;19917;-82
2021/11/13 09:30:19;;;;;;;;;;;;;;;3.26;78.06;99415.66;5013660;28;19921;-82
2021/11/13 09:32:46;;;;;;;;;;;;;;;3.23;77.98;99411.34;5012254;28;19917;-82
2021/11/13 09:35:12;;;;;;;;;;;;;;;3.26;78.03;99411.28;5013494;28;19921;-82
2021/11/13 09:37:40;;;;;;;;;;;;;;;3.23;77.78;99408.72;5013480;28;19918;-82
2021/11/13 09:40:07;;;;;;;;;;;;;;;3.24;77.92;99404.38;5013330;28;19948;-82
2021/11/13 09:42:32;;;;;;;;;;;;;;;3.25;77.64;99408.69;5012280;28;19921;-83
2021/11/13 09:44:58;;;;;;;;;;;;;;;3.27;77.72;99414.75;5013023;28;19921;-82
2021/11/13 09:47:23;;;;;;;;;;;;;;;3.19;78.16;99414.94;5012070;28;20040;-82
2021/11/13 09:49:49;;;;;;;;;;;;;;;3.23;78.15;99410.47;5013401;28;19925;-82
2021/11/13 09:52:15;;;;;;;;;;;;;;;3.23;78.16;99407.88;5013199;28;19924;-82
2021/11/13 09:54:41;;;;;;;;;;;;;;;3.24;78.68;99406.97;5013063;28;19922;-83
2021/11/13 09:57:07;;;;;;;;;;;;;;;3.32;79.28;99407.69;5012565;28;20003;-84
2021/11/13 09:59:32;;;;;;;;;;;;;;;3.34;78.94;99403.28;5013147;28;20048;-83
2021/11/13 10:01:58;;;;;;;;;;;;;;;3.31;79.07;99410.34;5013236;28;20003;-83
2021/11/13 10:04:24;;;;;;;;;;;;;;;3.30;78.54;99414.69;5011814;28;19925;-83
2021/11/13 10:06:49;;;;;;;;;;;;;;;3.33;79.09;99412.03;5012741;28;20008;-83
2021/11/13 10:09:14;;;;;;;;;;;;;;;3.31;79.16;99407.72;5012979;28;20380;-83
2021/11/13 10:11:40;;;;;;;;;;;;;;;3.35;79.14;99406.75;5012698;28;19919;-84
2021/11/13 10:14:07;;;;;;;;;;;;;;;3.39;79.16;99397.97;5012760;28;19922;-83
2021/11/13 10:16:33;;;;;;;;;;;;;;;3.43;78.48;99397.00;5012126;28;20345;-83
2021/11/13 10:19:04;;;;;;;;;;;;;;;3.41;78.73;99399.63;5011450;28;19917;-83
2021/11/13 10:21:30;;;;;;;;;;;;;;;3.43;79.08;99382.16;5011289;28;19957;-83
2021/11/13 10:24:04;;;;;;;;;;;;;;;3.42;78.22;99377.78;5012725;28;19972;-83
2021/11/13 10:26:35;;;;;;;;;;;;;;;3.48;78.89;99383.81;5012707;28;19939;-83
2021/11/13 10:29:05;;;;;;;;;;;;;;;3.48;78.81;99376.81;5011577;28;19961;-83
2021/11/13 10:31:30;;;;;;;;;;;;;;;3.44;78.30;99378.63;5012715;28;19921;-83
2021/11/13 10:33:58;;;;;;;;;;;;;;;3.48;78.18;99378.56;5011228;28;19980;-84
2021/11/13 10:36:28;;;;;;;;;;;;;;;3.51;78.48;99379.38;5011177;28;21285;-84
2021/11/13 10:38:59;;;;;;;;;;;;;;;3.53;79.12;99369.72;5012539;28;19918;-83
2021/11/13 10:41:25;;;;;;;;;;;;;;;3.57;79.53;99370.53;5011945;28;19922;-83
2021/11/13 10:43:51;;;;;;;;;;;;;;;3.56;78.66;99377.53;5012421;28;19967;-83
2021/11/13 10:46:22;;;;;;;;;;;;;;;3.58;79.08;99367.00;5012453;28;19921;-83
2021/11/13 10:48:49;;;;;;;;;;;;;;;3.53;78.55;99367.09;5010898;28;19925;-83
2021/11/13 10:51:15;;;;;;;;;;;;;;;3.52;78.61;99365.38;5011511;28;19921;-83
2021/11/13 10:53:42;;;;;;;;;;;;;;;3.59;79.26;99369.59;5012170;28;20511;-84
2021/11/13 10:56:12;;;;;;;;;;;;;;;3.60;79.45;99367.84;5002803;28;19972;-84
2021/11/13 10:58:39;;;;;;;;;;;;;;;3.60;79.22;99367.84;5011478;28;19921;-84
2021/11/13 11:01:10;;;;;;;;;;;;;;;3.62;79.38;99360.78;5011425;28;19917;-84
2021/11/13 11:03:42;;;;;;;;;;;;;;;3.69;79.13;99358.94;5008663;28;20312;-84
2021/11/13 11:06:10;;;;;;;;;;;;;;;3.72;79.75;99357.09;5011660;28;19921;-83
2021/11/13 11:08:39;;;;;;;;;;;;;;;3.69;79.27;99358.94;5011169;28;19921;-83
2021/11/13 11:11:23;;;;;;;;;;;;;;;3.72;79.70;99351.84;5002427;28;20361;-83
2021/11/13 11:13:52;;;;;;;;;;;;;;;3.70;79.19;99348.41;5011938;28;19925;-84
2021/11/13 11:16:21;;;;;;;;;;;;;;;3.71;79.61;99344.03;5011600;28;20489;-83
2021/11/13 11:18:53;;;;;;;;;;;;;;;3.73;80.19;99343.09;5009958;28;19917;-84
2021/11/13 11:21:37;;;;;;;;;;;;;;;3.80;80.35;99343.84;5011459;28;19953;-84
2021/11/13 11:24:08;;;;;;;;;;;;;;;3.79;79.72;99342.94;5011772;28;19918;-83
2021/11/13 11:26:34;;;;;;;;;;;;;;;3.77;80.30;99339.50;5011787;28;19921;-84
2021/11/13 11:28:59;;;;;;;;;;;;;;;3.81;80.37;99341.19;5011909;28;19976;-84
2021/11/13 11:31:40;;;;;;;;;;;;;;;3.80;80.64;99334.19;5011591;28;19924;-84
2021/11/13 11:34:05;;;;;;;;;;;;;;;3.84;80.54;99342.84;5010339;28;19957;-84
2021/11/13 11:36:31;;;;;;;;;;;;;;;3.85;80.64;99335.88;5011816;28;19965;-84
2021/11/13 11:38:57;;;;;;;;;;;;;;;3.87;80.27;99340.16;4994088;28;19921;-84
2021/11/13 11:41:22;;;;;;;;;;;;;;;3.87;79.94;99339.31;5011641;28;19928;-84
2021/11/13 11:43:48;;;;;;;;;;;;;;;3.92;80.07;99342.69;5011695;28;20332;-84
2021/11/13 11:46:13;;;;;;;;;;;;;;;3.87;79.70;99334.06;4994010;28;20011;-84
2021/11/13 11:48:39;;;;;;;;;;;;;;;3.96;80.50;99337.34;5010263;28;19922;-83
2021/11/13 11:51:04;;;;;;;;;;;;;;;3.89;80.17;99346.22;5011713;28;20361;-83
2021/11/13 11:53:30;;;;;;;;;;;;;;;3.93;80.86;99337.41;4994237;28;19936;-83
2021/11/13 11:55:55;;;;;;;;;;;;;;;3.98;80.85;99338.16;5011488;28;19984;-83
2021/11/13 11:58:21;;;;;;;;;;;;;;;3.97;81.02;99331.22;5011187;28;19925;-83
2021/11/13 12:00:49;;;;;;;;;;;;;;;3.99;81.20;99337.25;5002718;28;19953;-84
2021/11/13 12:03:35;;;;;;;;;;;;;;;4.02;81.40;99338.97;5010407;28;19925;-84
2021/11/13 12:06:01;;;;;;;;;;;;;;;4.03;81.43;99335.44;5011605;28;20262;-83
2021/11/13 12:08:27;;;;;;;;;;;;;;;4.00;81.38;99330.25;4993759;28;19924;-84
2021/11/13 12:10:54;;;;;;;;;;;;;;;4.05;81.39;99336.25;5011485;28;20127;-83
2021/11/13 12:13:29;;;;;;;;;;;;;;;4.04;81.46;99336.28;5011552;28;20024;-84
2021/11/13 12:15:58;;;;;;;;;;;;;;;4.07;81.53;99329.22;4993340;28;19961;-83
2021/11/13 12:18:24;;;;;;;;;;;;;;;4.05;81.47;99331.00;5009775;28;19925;-84
2021/11/13 12:20:51;;;;;;;;;;;;;;;4.12;81.87;99335.22;5012489;28;20292;-83
2021/11/13 12:23:25;;;;;;;;;;;;;;;4.12;81.84;99329.13;4997425;28;19924;-82
2021/11/13 12:25:59;;;;;;;;;;;;;;;4.18;82.28;99329.84;5014177;28;19925;-83
2021/11/13 12:28:28;;;;;;;;;;;;;;;4.18;82.71;99327.22;5014402;28;19921;-83
2021/11/13 12:31:05;;;;;;;;;;;;;;;4.19;82.66;99326.28;4996592;28;19929;-84
2021/11/13 12:33:31;;;;;;;;;;;;;;;4.23;82.97;99332.34;5013357;28;19917;-84
2021/11/13 12:35:59;;;;;;;;;;;;;;;4.27;83.00;99320.00;5014566;28;20012;-84
2021/11/13 12:38:30;;;;;;;;;;;;;;;4.27;83.14;99320.00;5014790;28;19929;-84
2021/11/13 12:41:09;;;;;;;;;;;;;;;4.28;83.36;99322.59;5014657;28;20400;-83
2021/11/13 12:43:56;;;;;;;;;;;;;;;4.29;83.45;99328.69;5014635;28;19922;-83
2021/11/13 12:46:38;;;;;;;;;;;;;;;4.33;83.84;99331.22;5014567;28;19953;-83
2021/11/13 12:49:16;;;;;;;;;;;;;;;4.31;83.87;99321.66;5012508;28;19925;-83
2021/11/13 12:51:44;;;;;;;;;;;;;;;4.48;84.86;99327.38;5013024;28;19987;-83
2021/11/13 12:54:16;;;;;;;;;;;;;;;4.60;85.98;99322.69;5014368;28;19921;-83
2021/11/13 12:56:42;;;;;;;;;;;;;;;4.73;87.64;99324.09;5014521;28;19964;-83
2021/11/13 12:59:13;;;;;;;;;;;;;;;4.81;88.58;99322.13;5014266;28;19933;-84
2021/11/13 13:01:45;;;;;;;;;;;;;;;4.85;89.87;99323.78;5014026;28;20396;-84
2021/11/13 13:04:11;;;;;;;;;;;;;;;4.95;90.84;99326.16;5012911;28;20026;-84
2021/11/13 13:06:41;;;;;;;;;;;;;;;4.89;91.49;99327.16;5014193;28;19957;-84
2021/11/13 13:09:07;;;;;;;;;;;;;;;4.80;91.50;99320.38;5014029;28;20388;-84
2021/11/13 13:11:32;;;;;;;;;;;;;;;4.72;92.27;99327.59;5013925;28;19917;-84
2021/11/13 13:13:59;;;;;;;;;;;;;;;4.76;91.97;99321.38;5013818;28;19917;-84
2021/11/13 13:16:28;;;;;;;;;;;;;;;4.68;91.35;99323.34;5013927;28;19918;-83
2021/11/13 13:18:59;;;;;;;;;;;;;;;4.64;91.35;99324.31;5012390;28;19921;-83
2021/11/13 13:21:25;;;;;;;;;;;;;;;4.57;91.48;99326.25;5013841;28;19941;-83
2021/11/13 13:23:50;;;;;;;;;;;;;;;4.53;92.07;99325.47;5013873;28;20349;-83
2021/11/13 13:26:17;;;;;;;;;;;;;;;4.53;93.21;99320.22;5013895;28;19918;-83
2021/11/13 13:28:43;;;;;;;;;;;;;;;4.33;95.50;99328.59;5013741;28;19924;-83
2021/11/13 13:31:09;;;;;;;;;;;;;;;4.37;98.19;99324.13;5004577;28;20023;-83
2021/11/13 13:33:36;;;;;;;;;;;;;;;4.45;100.00;99319.56;5011624;28;19917;-83
2021/11/13 13:36:01;;;;;;;;;;;;;;;4.67;100.00;99316.38;5013352;28;20440;-83
2021/11/13 13:38:26;;;;;;;;;;;;;;;4.83;100.00;99322.06;5013641;28;19924;-83
2021/11/13 13:40:57;;;;;;;;;;;;;;;4.93;100.00;99317.44;5013495;28;19971;-83
2021/11/13 13:43:25;;;;;;;;;;;;;;;5.03;100.00;99314.53;5013570;28;19922;-84
2021/11/13 13:45:55;;;;;;;;;;;;;;;5.08;100.00;99315.25;4995847;28;20284;-83
2021/11/13 13:48:22;;;;;;;;;;;;;;;5.16;100.00;99315.03;5011865;28;20328;-83
2021/11/13 13:50:50;;;;;;;;;;;;;;;5.21;100.00;99318.38;5012513;28;19963;-84
2021/11/13 13:53:15;;;;;;;;;;;;;;;5.27;100.00;99312.13;5013355;28;19949;-84
2021/11/13 13:55:41;;;;;;;;;;;;;;;5.34;100.00;99318.03;5013181;28;20292;-83
2021/11/13 13:58:07;;;;;;;;;;;;;;;5.37;100.00;99321.44;5013163;28;19957;-83
2021/11/13 14:00:33;;;;;;;;;;;;;;;5.42;100.00;99323.94;4995642;28;19924;-84
2021/11/13 14:02:59;;;;;;;;;;;;;;;5.47;100.00;99324.66;5011834;28;19917;-83
2021/11/13 14:05:26;;;;;;;;;;;;;;;5.49;100.00;99328.13;5013005;28;19925;-83
2021/11/13 14:07:51;;;;;;;;;;;;;;;5.52;100.00;99322.78;4995481;28;19927;-83
2021/11/13 14:10:17;;;;;;;;;;;;;;;5.56;100.00;99319.13;5012695;28;20344;-83
2021/11/13 14:12:51;;;;;;;;;;;;;;;5.58;100.00;99322.56;5012919;28;19917;-83
2021/11/13 14:15:21;;;;;;;;;;;;;;;5.64;100.00;99326.78;4995074;28;19987;-84
2021/11/13 14:17:54;;;;;;;;;;;;;;;5.69;100.00;99321.41;5011532;28;20020;-83
2021/11/13 14:20:21;;;;;;;;;;;;;;;5.72;100.00;99323.94;5011926;28;20396;-83
2021/11/13 14:22:53;;;;;;;;;;;;;;;5.71;100.00;99320.47;5012739;28;19972;-84
2021/11/13 14:25:19;;;;;;;;;;;;;;;5.75;100.00;99323.84;5012502;28;19914;-84
2021/11/13 14:27:44;;;;;;;;;;;;;;;5.12;100.00;99323.91;5012622;28;19924;-83
2021/11/13 14:30:09;;;;;;;;;;;;;;;4.60;100.00;99328.81;4994919;28;19972;-83
2021/11/13 14:32:34;;;;;;;;;;;;;;;4.30;100.00;99319.94;5011432;28;19917;-83
2021/11/13 14:35:07;;;;;;;;;;;;;;;4.22;100.00;99324.50;5012496;28;19917;-83
2021/11/13 14:37:33;;;;;;;;;;;;;;;4.11;100.00;99336.09;4995287;28;20028;-83
2021/11/13 14:40:04;;;;;;;;;;;;;;;4.02;100.00;99338.09;5012202;28;20020;-82
2021/11/13 14:42:42;;;;;;;;;;;;;;;3.95;100.00;99342.63;5012590;28;19924;-83
2021/11/13 14:45:07;;;;;;;;;;;;;;;3.90;100.00;99345.34;5002791;28;20364;-83
2021/11/13 14:47:40;;;;;;;;;;;;;;;3.81;100.00;99335.94;5011312;28;20232;-82
2021/11/13 14:50:12;;;;;;;;;;;;;;;3.79;100.00;99342.94;5011802;28;20349;-83
2021/11/13 14:52:49;;;;;;;;;;;;;;;3.82;100.00;99339.41;4994748;28;19917;-83
2021/11/13 14:55:21;;;;;;;;;;;;;;;3.68;99.36;99346.72;5011463;28;19927;-83
2021/11/13 14:57:46;;;;;;;;;;;;;;;3.69;98.53;99346.69;5012186;28;19917;-83
2021/11/13 15:00:18;;;;;;;;;;;;;;;3.70;98.07;99348.41;4994398;28;19914;-83
2021/11/13 15:02:45;;;;;;;;;;;;;;;3.67;96.99;99351.09;5010208;28;19921;-83
2021/11/13 15:05:20;;;;;;;;;;;;;;;3.66;96.23;99345.91;5012439;28;20296;-83
2021/11/13 15:07:46;;;;;;;;;;;;;;;3.64;95.23;99348.53;5011656;28;20009;-83
2021/11/13 15:10:11;;;;;;;;;;;;;;;3.59;94.83;99360.84;5012205;28;20333;-83
2021/11/13 15:12:37;;;;;;;;;;;;;;;3.60;94.29;99352.97;5012134;28;19918;-83
2021/11/13 15:15:03;;;;;;;;;;;;;;;3.56;93.60;99355.72;5012035;28;20387;-84
2021/11/13 15:17:34;;;;;;;;;;;;;;;3.51;93.08;99354.91;5010849;28;19975;-83
2021/11/13 15:20:19;;;;;;;;;;;;;;;3.48;92.49;99352.38;5011874;28;19922;-83
2021/11/13 15:22:47;;;;;;;;;;;;;;;3.44;91.94;99347.19;5011398;28;19963;-83
2021/11/13 15:25:19;;;;;;;;;;;;;;;3.48;91.56;99348.00;5011936;28;19924;-83
2021/11/13 15:28:03;;;;;;;;;;;;;;;3.43;91.48;99350.72;5011256;28;19957;-83
2021/11/13 15:30:30;;;;;;;;;;;;;;;3.38;91.20;99341.22;5011968;28;19925;-82
2021/11/13 15:32:58;;;;;;;;;;;;;;;3.41;91.14;99349.88;5009870;28;19924;-83
2021/11/13 15:35:25;;;;;;;;;;;;;;;3.33;90.49;99345.69;5011829;28;20285;-83
2021/11/13 15:40:29;;;;;;;;;;;;;;;3.43;90.32;99339.34;4971306;28;19937;-83
2021/11/13 15:42:55;;;;;;;;;;;;;;;3.37;89.87;99350.84;4955478;28;19981;-84
2021/11/13 15:45:24;;;;;;;;;;;;;;;3.30;89.75;99343.13;4972603;28;19930;-83
2021/11/13 15:48:09;;;;;;;;;;;;;;;3.37;89.79;99344.75;4971574;28;19927;-83
2021/11/13 15:50:50;;;;;;;;;;;;;;;3.34;89.29;99353.53;4972637;28;19922;-84
2021/11/13 15:53:15;;;;;;;;;;;;;;;3.31;88.96;99347.50;4971203;28;19918;-84
2021/11/13 15:55:40;;;;;;;;;;;;;;;3.32;88.86;99349.19;4973479;28;19929;-84
2021/11/13 15:58:05;;;;;;;;;;;;;;;3.28;88.75;99354.50;4976306;28;19918;-84
2021/11/13 16:00:31;;;;;;;;;;;;;;;3.24;88.80;99352.00;4958769;28;20289;-83
2021/11/13 16:02:58;;;;;;;;;;;;;;;3.31;88.66;99355.34;4975020;28;19918;-83
2021/11/13 16:05:25;;;;;;;;;;;;;;;3.33;88.72;99350.94;4976152;28;19950;-83
2021/11/13 16:07:50;;;;;;;;;;;;;;;3.27;88.42;99349.28;4958723;28;19926;-83
2021/11/13 16:10:16;;;;;;;;;;;;;;;3.21;88.32;99352.91;4976171;28;19918;-83
2021/11/13 16:12:41;;;;;;;;;;;;;;;3.23;88.12;99355.50;4975946;28;19919;-83
2021/11/13 16:15:07;;;;;;;;;;;;;;;3.26;88.12;99358.06;4958624;28;19918;-83
2021/11/13 16:17:32;;;;;;;;;;;;;;;3.21;88.02;99366.00;4974903;28;20671;-83
2021/11/13 16:19:58;;;;;;;;;;;;;;;3.24;87.97;99362.47;4975161;28;20247;-83
2021/11/13 16:22:23;;;;;;;;;;;;;;;3.09;87.42;99361.88;4958636;28;20012;-84
2021/11/13 16:24:48;;;;;;;;;;;;;;;3.08;87.57;99364.53;4975994;28;20289;-84
2021/11/13 16:27:14;;;;;;;;;;;;;;;3.11;87.70;99368.81;4975681;28;19976;-83
2021/11/13 16:29:40;;;;;;;;;;;;;;;3.04;87.47;99370.69;4958565;28;19922;-83
2021/11/13 16:32:06;;;;;;;;;;;;;;;3.01;87.42;99366.38;4975692;28;19961;-83
2021/11/13 16:34:31;;;;;;;;;;;;;;;3.02;87.32;99370.72;4974526;28;20341;-83
2021/11/13 16:36:59;;;;;;;;;;;;;;;2.91;87.34;99370.91;4958300;28;20005;-83
2021/11/13 16:39:24;;;;;;;;;;;;;;;3.03;87.35;99372.47;4975514;28;19922;-83
2021/11/13 16:41:49;;;;;;;;;;;;;;;3.02;86.70;99368.09;4974308;28;20366;-83
2021/11/13 16:44:14;;;;;;;;;;;;;;;2.94;86.59;99377.84;4958267;28;20413;-83
2021/11/13 16:46:40;;;;;;;;;;;;;;;2.94;86.66;99377.84;4975538;28;19918;-84
2021/11/13 16:49:09;;;;;;;;;;;;;;;2.95;86.54;99374.31;4974345;28;19918;-84
2021/11/13 16:51:36;;;;;;;;;;;;;;;2.91;86.35;99378.75;4958082;28;20345;-83
2021/11/13 16:54:05;;;;;;;;;;;;;;;2.98;86.82;99379.50;4974676;28;19924;-84
2021/11/13 16:56:31;;;;;;;;;;;;;;;2.96;86.66;99383.91;4974431;28;19918;-84
2021/11/13 16:58:57;;;;;;;;;;;;;;;2.95;86.55;99379.56;4958484;28;19918;-83
2021/11/13 17:01:27;;;;;;;;;;;;;;;2.92;86.23;99387.50;4975534;28;20346;-83
2021/11/13 17:03:53;;;;;;;;;;;;;;;2.91;86.45;99385.75;4972320;28;20008;-83
2021/11/13 17:06:19;;;;;;;;;;;;;;;2.98;86.21;99386.50;4973782;28;19926;-84
2021/11/13 17:08:45;;;;;;;;;;;;;;;2.97;86.18;99390.00;4974055;28;20348;-83
2021/11/13 17:11:10;;;;;;;;;;;;;;;3.00;86.15;99393.44;4974035;28;19969;-83
2021/11/13 17:13:36;;;;;;;;;;;;;;;2.94;85.88;99401.41;4974921;28;19925;-83
2021/11/13 17:16:05;;;;;;;;;;;;;;;2.95;85.98;99400.50;4975030;28;19970;-83
2021/11/13 17:18:30;;;;;;;;;;;;;;;2.92;85.86;99392.75;4972573;28;20294;-83
2021/11/13 17:20:56;;;;;;;;;;;;;;;2.91;85.58;99406.69;4974510;28;19914;-83
2021/11/13 17:23:22;;;;;;;;;;;;;;;2.94;85.81;99403.19;4974625;28;19922;-83
2021/11/13 17:25:47;;;;;;;;;;;;;;;2.93;85.53;99401.44;4974843;28;20012;-83
2021/11/13 17:28:12;;;;;;;;;;;;;;;2.94;85.44;99406.66;4974442;28;19922;-83
2021/11/13 17:30:39;;;;;;;;;;;;;;;2.98;85.63;99410.91;4973796;28;19926;-83
2021/11/13 17:33:04;;;;;;;;;;;;;;;2.98;85.29;99410.91;4973063;28;20277;-83
2021/11/13 17:35:30;;;;;;;;;;;;;;;3.03;85.18;99422.19;4974373;28;19918;-82
2021/11/13 17:37:56;;;;;;;;;;;;;;;3.01;85.22;99415.25;4974551;28;19929;-83
2021/11/13 17:40:23;;;;;;;;;;;;;;;3.01;84.94;99417.88;4974173;28;19926;-83
2021/11/13 17:42:48;;;;;;;;;;;;;;;2.98;85.07;99421.38;4974559;28;20282;-83
2021/11/13 17:45:15;;;;;;;;;;;;;;;3.06;85.03;99416.91;4974458;28;19926;-83
2021/11/13 17:47:41;;;;;;;;;;;;;;;3.08;84.61;99420.34;4955937;28;19922;-83
2021/11/13 17:50:07;;;;;;;;;;;;;;;3.11;84.16;99426.41;4957035;28;19922;-83
2021/11/13 17:52:32;;;;;;;;;;;;;;;3.11;84.32;99415.94;4974265;28;19942;-83
2021/11/13 17:54:58;;;;;;;;;;;;;;;3.07;83.82;99426.47;4974051;28;19926;-83
2021/11/13 17:57:24;;;;;;;;;;;;;;;3.05;83.89;99422.16;4974253;28;19918;-83
2021/11/13 17:59:49;;;;;;;;;;;;;;;3.10;83.74;99428.19;4974256;28;19922;-83
2021/11/13 18:02:16;;;;;;;;;;;;;;;3.05;83.34;99427.41;4972959;28;19950;-83
2021/11/13 18:04:41;;;;;;;;;;;;;;;3.06;83.57;99431.72;4972792;28;19926;-83
2021/11/13 18:07:07;;;;;;;;;;;;;;;3.11;83.36;99434.25;4973361;28;20544;-83
2021/11/13 18:09:33;;;;;;;;;;;;;;;3.04;83.40;99433.53;4973123;28;19918;-83
2021/11/13 18:11:59;;;;;;;;;;;;;;;3.12;83.52;99438.63;4973322;28;20376;-82
2021/11/13 18:14:24;;;;;;;;;;;;;;;3.08;82.97;99436.06;4972674;28;19968;-83
2021/11/13 18:16:50;;;;;;;;;;;;;;;3.16;82.91;99437.66;4973210;28;19918;-83
2021/11/13 18:19:16;;;;;;;;;;;;;;;3.18;82.73;99439.38;4971555;28;19925;-83